createdAt,value
2019-01-09T00:01:38.310Z,227.28
2019-01-09T00:04:07.660Z,224.75
2019-01-09T00:06:37.124Z,229.68
2019-01-09T00:09:08.427Z,200.50
2019-01-09T00:11:37.755Z,184.37
2019-01-09T00:14:07.435Z,176.97
2019-01-09T00:16:36.894Z,146.77
2019-01-09T00:19:06.226Z,116.25
2019-01-09T00:21:35.667Z,100.78
2019-01-09T00:24:05.414Z,88.40
2019-01-09T00:26:35.096Z,74.05
2019-01-09T00:29:04.727Z,90.42
2019-01-09T00:31:34.020Z,72.05
2019-01-09T00:34:03.398Z,79.27
2019-01-09T00:36:32.708Z,88.33
2019-01-09T00:39:02.023Z,96.78
2019-01-09T00:41:31.471Z,80.92
2019-01-09T00:44:00.798Z,87.53
2019-01-09T00:46:30.137Z,85.32
2019-01-09T00:48:59.477Z,83.40
2019-01-09T00:51:28.849Z,87.57
2019-01-09T00:53:58.361Z,78.42
2019-01-09T00:56:27.908Z,78.28
2019-01-09T00:58:57.332Z,79.45
2019-01-09T01:01:26.801Z,79.30
2019-01-09T01:04:37.766Z,78.20
2019-01-09T01:08:03.216Z,67.20
2019-01-09T01:11:19.544Z,60.23
2019-01-09T01:14:26.461Z,60.40
2019-01-09T01:17:40.673Z,72.82
2019-01-09T01:20:36.851Z,76.90
2019-01-09T01:23:43.131Z,75.45
2019-01-09T01:26:46.445Z,70.97
2019-01-09T01:29:51.816Z,64.65
2019-01-09T01:32:58.926Z,61.33
2019-01-09T01:36:04.272Z,64.12
2019-01-09T01:39:21.827Z,65.78
2019-01-09T01:42:14.081Z,66.15
2019-01-09T01:45:15.343Z,60.88
2019-01-09T01:48:26.876Z,66.80
2019-01-09T01:51:32.966Z,76.40
2019-01-09T01:54:42.229Z,64.27
2019-01-09T01:57:36.020Z,73.92
2019-01-09T02:00:41.388Z,73.45
2019-01-09T02:04:00.627Z,65.85
2019-01-09T02:07:08.112Z,60.43
2019-01-09T02:10:07.022Z,62.70
2019-01-09T02:13:26.220Z,63.10
2019-01-09T02:16:27.871Z,54.93
2019-01-09T02:19:37.452Z,62.70
2019-01-09T02:22:59.999Z,86.15
2019-01-09T02:25:58.596Z,83.30
2019-01-09T02:29:05.809Z,62.55
2019-01-09T02:32:01.421Z,69.62
2019-01-09T02:34:30.745Z,63.83
2019-01-09T02:37:00.085Z,79.92
2019-01-09T02:39:29.415Z,86.10
2019-01-09T02:41:58.760Z,77.92
2019-01-09T02:44:32.385Z,74.65
2019-01-09T02:46:59.143Z,72.45
2019-01-09T02:49:28.571Z,73.72
2019-01-09T02:51:57.887Z,77.72
2019-01-09T02:54:27.238Z,60.90
2019-01-09T02:56:56.582Z,59.63
2019-01-09T02:59:25.989Z,56.85
2019-01-09T03:01:55.361Z,57.30
2019-01-09T03:04:24.688Z,62.93
2019-01-09T03:06:54.032Z,56.30
2019-01-09T03:09:23.329Z,52.88
2019-01-09T03:11:52.917Z,45.40
2019-01-09T03:14:22.222Z,49.73
2019-01-09T03:16:51.531Z,44.88
2019-01-09T03:19:20.895Z,47.70
2019-01-09T03:21:50.226Z,33.15
2019-01-09T03:24:19.624Z,35.28
2019-01-09T03:26:48.959Z,35.48
2019-01-09T03:29:18.318Z,42.13
2019-01-09T03:31:47.622Z,43.15
2019-01-09T03:34:16.956Z,43.38
2019-01-09T03:36:46.276Z,47.13
2019-01-09T03:39:15.577Z,39.60
2019-01-09T03:41:44.911Z,45.52
2019-01-09T03:44:14.368Z,36.25
2019-01-09T03:46:43.782Z,45.92
2019-01-09T03:49:13.168Z,44.67
2019-01-09T03:51:42.924Z,48.78
2019-01-09T03:54:12.259Z,51.90
2019-01-09T03:56:41.622Z,46.65
2019-01-09T03:59:11.066Z,47.17
2019-01-09T04:01:40.431Z,48.40
2019-01-09T04:04:09.737Z,42.50
2019-01-09T04:06:41.935Z,42.53
2019-01-09T04:09:10.136Z,39.03
2019-01-09T04:11:39.503Z,37.63
2019-01-09T04:14:08.818Z,34.05
2019-01-09T04:16:38.124Z,35.08
2019-01-09T04:19:07.545Z,38.92
2019-01-09T04:21:36.898Z,38.30
2019-01-09T04:24:06.300Z,33.63
2019-01-09T04:26:35.605Z,34.35
2019-01-09T04:29:04.970Z,38.90
2019-01-09T04:31:34.285Z,40.63
2019-01-09T04:34:03.620Z,34.08
2019-01-09T04:36:32.956Z,31.68
2019-01-09T04:39:02.347Z,32.93
2019-01-09T04:41:31.717Z,33.88
2019-01-09T04:44:01.067Z,29.02
2019-01-09T04:46:30.466Z,37.33
2019-01-09T04:48:59.767Z,31.40
2019-01-09T04:51:29.125Z,31.37
2019-01-09T04:53:59.418Z,27.22
2019-01-09T04:56:28.938Z,29.63
2019-01-09T04:58:58.308Z,29.67
2019-01-09T05:01:27.698Z,27.62
2019-01-09T05:03:57.073Z,23.40
2019-01-09T05:06:26.432Z,26.90
2019-01-09T05:08:55.781Z,25.35
2019-01-09T05:11:25.108Z,27.98
2019-01-09T05:13:54.382Z,28.67
2019-01-09T05:16:23.690Z,25.80
2019-01-09T05:18:53.003Z,27.25
2019-01-09T05:21:22.297Z,30.50
2019-01-09T05:23:51.639Z,29.63
2019-01-09T05:26:21.031Z,28.20
2019-01-09T05:28:50.394Z,28.52
2019-01-09T05:31:19.715Z,32.30
2019-01-09T05:33:49.059Z,35.17
2019-01-09T05:36:18.490Z,34.15
2019-01-09T05:38:47.870Z,35.28
2019-01-09T05:41:17.185Z,33.90
2019-01-09T05:43:46.528Z,36.35
2019-01-09T05:46:15.872Z,38.38
2019-01-09T05:48:45.215Z,40.10
2019-01-09T05:51:14.580Z,36.03
2019-01-09T05:53:43.896Z,34.15
2019-01-09T05:56:13.300Z,32.90
2019-01-09T05:58:42.652Z,35.20
2019-01-09T06:01:12.053Z,37.73
2019-01-09T06:03:41.457Z,33.23
2019-01-09T06:06:10.796Z,31.80
2019-01-09T06:08:40.180Z,34.48
2019-01-09T06:11:09.479Z,38.35
2019-01-09T06:13:38.804Z,38.92
2019-01-09T06:16:08.160Z,48.95
2019-01-09T06:18:37.452Z,66.33
2019-01-09T06:21:06.794Z,60.48
2019-01-09T06:23:36.115Z,65.50
2019-01-09T06:26:05.456Z,58.25
2019-01-09T06:28:34.824Z,51.80
2019-01-09T06:31:04.156Z,54.30
2019-01-09T06:33:33.473Z,60.17
2019-01-09T06:36:03.993Z,59.15
2019-01-09T06:38:33.484Z,59.08
2019-01-09T06:41:02.807Z,65.05
2019-01-09T06:43:32.146Z,69.20
2019-01-09T06:46:01.477Z,71.40
2019-01-09T06:48:30.801Z,73.20
2019-01-09T06:51:00.158Z,72.82
2019-01-09T06:53:29.513Z,75.95
2019-01-09T06:55:58.875Z,70.12
2019-01-09T06:58:30.039Z,75.45
2019-01-09T07:00:59.450Z,74.32
2019-01-09T07:03:28.811Z,74.85
2019-01-09T07:05:58.283Z,83.87
2019-01-09T07:08:27.617Z,81.87
2019-01-09T07:10:56.957Z,87.47
2019-01-09T07:13:26.311Z,84.70
2019-01-09T07:15:55.656Z,86.13
2019-01-09T07:18:24.985Z,83.57
2019-01-09T07:20:54.320Z,80.03
2019-01-09T07:23:25.599Z,90.27
2019-01-09T07:25:54.717Z,86.73
2019-01-09T07:28:24.035Z,90.13
2019-01-09T07:30:53.430Z,89.63
2019-01-09T07:33:22.755Z,81.07
2019-01-09T07:35:52.536Z,77.07
2019-01-09T07:38:21.874Z,87.70
2019-01-09T07:40:52.185Z,87.70
2019-01-09T07:43:21.577Z,68.57
2019-01-09T07:45:51.011Z,55.23
2019-01-09T07:48:20.335Z,60.10
2019-01-09T07:50:49.698Z,61.13
2019-01-09T07:53:18.998Z,55.90
2019-01-09T07:55:48.280Z,46.83
2019-01-09T07:58:17.645Z,41.10
2019-01-09T08:00:47.179Z,45.70
2019-01-09T08:03:16.529Z,41.67
2019-01-09T08:05:45.871Z,38.33
2019-01-09T08:08:16.202Z,40.80
2019-01-09T08:10:45.543Z,39.35
2019-01-09T08:13:14.933Z,40.73
2019-01-09T08:15:44.306Z,45.67
2019-01-09T08:18:13.649Z,39.35
2019-01-09T08:20:42.990Z,40.90
2019-01-09T08:23:12.378Z,43.78
2019-01-09T08:25:41.745Z,38.48
2019-01-09T08:28:11.039Z,48.10
2019-01-09T08:30:40.441Z,33.92
2019-01-09T08:33:10.921Z,39.48
2019-01-09T08:35:40.299Z,39.23
2019-01-09T08:38:09.665Z,45.73
2019-01-09T08:40:38.983Z,47.53
2019-01-09T08:43:08.322Z,43.78
2019-01-09T08:45:37.775Z,53.90
2019-01-09T08:48:07.155Z,46.55
2019-01-09T08:50:36.499Z,52.10
2019-01-09T08:53:05.806Z,52.40
2019-01-09T08:55:35.107Z,49.38
2019-01-09T08:58:04.464Z,53.23
2019-01-09T09:00:33.827Z,57.85
2019-01-09T09:03:03.277Z,54.18
2019-01-09T09:05:32.660Z,48.63
2019-01-09T09:08:11.748Z,53.33
2019-01-09T09:10:35.312Z,50.30
2019-01-09T09:13:04.673Z,49.27
2019-01-09T09:15:33.999Z,55.20
2019-01-09T09:18:03.293Z,58.80
2019-01-09T09:20:32.650Z,54.50
2019-01-09T09:23:01.998Z,50.00
2019-01-09T09:25:31.323Z,46.42
2019-01-09T09:28:00.687Z,47.40
2019-01-09T09:30:30.115Z,55.45
2019-01-09T09:32:59.486Z,54.85
2019-01-09T09:35:28.853Z,58.83
2019-01-09T09:37:58.218Z,58.77
2019-01-09T09:40:27.692Z,62.70
2019-01-09T09:42:57.067Z,66.77
2019-01-09T09:45:26.441Z,64.87
2019-01-09T09:47:55.761Z,70.10
2019-01-09T09:50:25.078Z,65.62
2019-01-09T09:52:54.458Z,62.60
2019-01-09T09:55:25.161Z,67.87
2019-01-09T09:57:54.491Z,68.40
2019-01-09T10:00:24.088Z,50.98
2019-01-09T10:02:54.252Z,39.73
2019-01-09T10:05:23.880Z,48.42
2019-01-09T10:07:53.341Z,50.73
2019-01-09T10:10:22.789Z,51.25
2019-01-09T10:12:52.453Z,40.85
2019-01-09T10:15:22.312Z,40.10
2019-01-09T10:17:54.406Z,41.10
2019-01-09T10:20:23.852Z,37.50
2019-01-09T10:22:53.240Z,44.95
2019-01-09T10:25:22.606Z,37.67
2019-01-09T10:27:51.891Z,40.48
2019-01-09T10:30:24.363Z,39.63
2019-01-09T10:32:53.719Z,37.48
2019-01-09T10:35:23.025Z,41.57
2019-01-09T10:37:52.553Z,43.07
2019-01-09T10:40:22.054Z,48.17
2019-01-09T10:42:51.641Z,47.23
2019-01-09T10:45:22.389Z,44.10
2019-01-09T10:47:51.724Z,51.67
2019-01-09T10:50:21.073Z,50.63
2019-01-09T10:52:50.409Z,41.90
2019-01-09T10:55:20.374Z,52.57
2019-01-09T10:57:49.702Z,51.53
2019-01-09T11:00:24.561Z,47.90
2019-01-09T11:02:54.330Z,49.03
2019-01-09T11:05:23.980Z,44.63
2019-01-09T11:07:53.325Z,47.90
2019-01-09T11:10:23.006Z,46.50
2019-01-09T11:12:52.399Z,55.97
2019-01-09T11:15:21.804Z,57.17
2019-01-09T11:17:51.106Z,49.37
2019-01-09T11:20:21.502Z,55.50
2019-01-09T11:22:50.815Z,52.60
2019-01-09T11:25:22.300Z,53.73
2019-01-09T11:27:51.820Z,60.73
2019-01-09T11:30:21.268Z,61.87
2019-01-09T11:32:50.735Z,70.00
2019-01-09T11:35:22.195Z,65.53
2019-01-09T11:37:53.000Z,76.27
2019-01-09T11:40:22.626Z,76.17
2019-01-09T11:42:52.072Z,70.17
2019-01-09T11:45:21.534Z,71.07
2019-01-09T11:47:50.865Z,66.17
2019-01-09T11:50:20.223Z,65.40
2019-01-09T11:52:49.676Z,57.63
2019-01-09T11:55:19.045Z,64.53
2019-01-09T11:57:48.390Z,60.33
2019-01-09T12:00:23.291Z,60.73
2019-01-09T12:02:52.632Z,46.00
2019-01-09T12:05:22.159Z,50.07
2019-01-09T12:07:51.614Z,45.00
2019-01-09T12:10:29.866Z,46.02
2019-01-09T12:12:53.424Z,54.03
2019-01-09T12:15:22.948Z,51.53
2019-01-09T12:17:52.274Z,56.05
2019-01-09T12:20:21.743Z,47.35
2019-01-09T12:22:51.125Z,49.35
2019-01-09T12:25:20.498Z,46.18
2019-01-09T12:27:49.813Z,42.05
2019-01-09T12:30:27.446Z,34.83
2019-01-09T12:32:56.893Z,39.18
2019-01-09T12:35:26.199Z,41.50
2019-01-09T12:37:55.508Z,39.38
2019-01-09T12:40:25.131Z,38.98
2019-01-09T12:42:55.717Z,39.92
2019-01-09T12:45:25.035Z,36.77
2019-01-09T12:47:54.403Z,36.88
2019-01-09T12:50:25.429Z,35.92
2019-01-09T12:52:54.787Z,38.55
2019-01-09T12:55:24.317Z,38.90
2019-01-09T12:57:53.645Z,38.65
2019-01-09T13:00:25.382Z,36.40
2019-01-09T13:02:54.930Z,42.60
2019-01-09T13:05:24.631Z,41.42
2019-01-09T13:07:54.512Z,39.33
2019-01-09T13:10:23.901Z,37.75
2019-01-09T13:12:53.285Z,38.38
2019-01-09T13:15:22.598Z,34.67
2019-01-09T13:17:52.203Z,40.85
2019-01-09T13:20:21.509Z,47.53
2019-01-09T13:22:50.900Z,41.13
2019-01-09T13:25:20.223Z,46.97
2019-01-09T13:27:49.561Z,50.88
2019-01-09T13:30:23.665Z,52.58
2019-01-09T13:32:53.058Z,51.48
2019-01-09T13:35:22.399Z,59.15
2019-01-09T13:37:51.744Z,58.05
2019-01-09T13:40:21.680Z,50.03
2019-01-09T13:42:51.128Z,40.65
2019-01-09T13:45:22.061Z,37.20
2019-01-09T13:47:51.537Z,36.42
2019-01-09T13:50:21.139Z,41.02
2019-01-09T13:52:50.888Z,42.17
2019-01-09T13:55:20.340Z,44.40
2019-01-09T13:57:49.969Z,38.75
2019-01-09T14:00:21.515Z,37.38
2019-01-09T14:02:50.890Z,34.33
2019-01-09T14:05:20.419Z,38.88
2019-01-09T14:07:49.888Z,34.85
2019-01-09T14:10:24.432Z,34.08
2019-01-09T14:12:53.760Z,37.95
2019-01-09T14:15:23.247Z,26.62
2019-01-09T14:17:52.615Z,25.45
2019-01-09T14:20:22.074Z,27.37
2019-01-09T14:22:51.398Z,26.77
2019-01-09T14:25:20.808Z,30.35
2019-01-09T14:27:50.403Z,41.30
2019-01-09T14:30:24.984Z,31.73
2019-01-09T14:32:54.352Z,42.30
2019-01-09T14:35:23.952Z,34.98
2019-01-09T14:37:53.333Z,25.70
2019-01-09T14:40:23.363Z,28.30
2019-01-09T14:42:52.659Z,37.80
2019-01-09T14:45:22.214Z,34.27
2019-01-09T14:47:51.615Z,38.38
2019-01-09T14:50:23.607Z,38.20
2019-01-09T14:52:53.643Z,31.77
2019-01-09T14:55:23.091Z,41.65
2019-01-09T14:57:53.028Z,37.80
2019-01-09T15:00:24.484Z,32.93
2019-01-09T15:02:54.045Z,27.55
2019-01-09T15:05:23.643Z,27.77
2019-01-09T15:07:53.080Z,26.35
2019-01-09T15:10:24.769Z,24.75
2019-01-09T15:12:54.194Z,25.97
2019-01-09T15:15:23.534Z,24.35
2019-01-09T15:17:52.995Z,27.50
2019-01-09T15:20:22.521Z,26.80
2019-01-09T15:22:51.850Z,25.57
2019-01-09T15:25:21.193Z,28.23
2019-01-09T15:27:50.602Z,25.40
2019-01-09T15:30:26.617Z,21.93
2019-01-09T15:32:56.398Z,19.48
2019-01-09T15:35:25.967Z,22.32
2019-01-09T15:37:55.304Z,14.58
2019-01-09T15:40:29.175Z,22.32
2019-01-09T15:42:58.515Z,23.30
2019-01-09T15:45:29.439Z,18.92
2019-01-09T15:47:58.796Z,18.70
2019-01-09T15:50:28.716Z,21.62
2019-01-09T15:52:58.025Z,15.93
2019-01-09T15:55:27.352Z,16.55
2019-01-09T15:57:56.753Z,17.82
2019-01-09T16:00:34.969Z,19.15
2019-01-09T16:03:04.605Z,16.00
2019-01-09T16:05:33.979Z,20.57
2019-01-09T16:08:03.385Z,20.62
2019-01-09T16:10:32.836Z,26.68
2019-01-09T16:13:02.162Z,28.73
2019-01-09T16:15:31.535Z,28.30
2019-01-09T16:18:00.889Z,32.15
2019-01-09T16:20:30.281Z,31.00
2019-01-09T16:22:59.611Z,34.73
2019-01-09T16:25:28.933Z,31.15
2019-01-09T16:27:58.277Z,35.90
2019-01-09T16:30:50.915Z,39.88
2019-01-09T16:33:20.306Z,51.65
2019-01-09T16:35:49.713Z,51.37
2019-01-09T16:38:19.089Z,54.13
2019-01-09T16:40:48.513Z,46.53
2019-01-09T16:43:17.860Z,43.65
2019-01-09T16:45:47.324Z,46.45
2019-01-09T16:48:16.681Z,38.98
2019-01-09T16:50:46.007Z,28.65
2019-01-09T16:53:15.351Z,27.67
2019-01-09T16:55:44.729Z,21.45
2019-01-09T16:58:14.084Z,18.70
2019-01-09T17:00:43.686Z,23.05
2019-01-09T17:03:13.449Z,25.92
2019-01-09T17:05:42.753Z,29.02
2019-01-09T17:08:12.086Z,39.45
2019-01-09T17:10:41.414Z,29.42
2019-01-09T17:13:10.831Z,35.38
2019-01-09T17:15:40.168Z,38.33
2019-01-09T17:18:09.628Z,51.53
2019-01-09T17:20:38.975Z,50.30
2019-01-09T17:23:08.351Z,47.43
2019-01-09T17:25:37.743Z,46.45
2019-01-09T17:28:07.633Z,42.80
2019-01-09T17:30:37.141Z,41.95
2019-01-09T17:33:07.368Z,36.05
2019-01-09T17:35:36.913Z,46.45
2019-01-09T17:38:06.351Z,36.00
2019-01-09T17:40:40.968Z,30.80
2019-01-09T17:43:07.322Z,26.80
2019-01-09T17:45:36.627Z,24.85
2019-01-09T17:48:06.631Z,26.15
2019-01-09T17:50:37.027Z,28.67
2019-01-09T17:53:06.711Z,29.57
2019-01-09T17:55:36.074Z,20.60
2019-01-09T17:58:05.499Z,28.75
2019-01-09T18:00:37.377Z,35.38
2019-01-09T18:03:06.825Z,33.53
2019-01-09T18:05:36.266Z,29.07
2019-01-09T18:08:10.933Z,35.83
2019-01-09T18:10:37.237Z,38.53
2019-01-09T18:13:06.957Z,38.70
2019-01-09T18:15:36.317Z,35.25
2019-01-09T18:18:06.259Z,36.03
2019-01-09T18:20:35.619Z,28.10
2019-01-09T18:23:05.072Z,22.35
2019-01-09T18:25:34.430Z,23.42
2019-01-09T18:28:03.785Z,22.32
2019-01-09T18:30:39.216Z,20.80
2019-01-09T18:33:29.377Z,22.20
2019-01-09T18:36:20.477Z,26.25
2019-01-09T18:39:34.771Z,33.08
2019-01-09T18:42:16.634Z,28.92
2019-01-09T18:45:14.076Z,29.25
2019-01-09T18:48:35.273Z,31.82
2019-01-09T18:51:39.909Z,12.13
2019-01-09T18:54:09.244Z,15.65
2019-01-09T18:56:44.950Z,18.57
2019-01-09T18:59:20.006Z,21.40
2019-01-09T19:01:49.386Z,19.07
2019-01-09T19:04:18.788Z,10.68
2019-01-09T19:06:48.229Z,29.75
2019-01-09T19:09:17.618Z,27.98
2019-01-09T19:11:50.640Z,21.42
2019-01-09T19:14:18.177Z,24.75
2019-01-09T19:16:47.581Z,33.23
2019-01-09T19:19:16.990Z,28.25
2019-01-09T19:21:46.520Z,37.78
2019-01-09T19:24:16.480Z,28.10
2019-01-09T19:26:45.855Z,39.80
2019-01-09T19:29:15.229Z,36.08
2019-01-09T19:31:44.580Z,44.98
2019-01-09T19:34:13.973Z,46.53
2019-01-09T19:36:43.371Z,52.10
2019-01-09T19:39:12.794Z,49.08
2019-01-09T19:41:42.619Z,43.50
2019-01-09T19:44:12.491Z,52.48
2019-01-09T19:46:41.912Z,51.77
2019-01-09T19:49:11.294Z,52.60
2019-01-09T19:51:40.698Z,37.38
2019-01-09T19:54:10.110Z,49.63
2019-01-09T19:56:40.447Z,49.85
2019-01-09T19:59:09.840Z,40.80
2019-01-09T20:01:39.575Z,43.23
2019-01-09T20:04:09.389Z,38.00
2019-01-09T20:06:38.857Z,33.55
2019-01-09T20:09:09.873Z,34.95
2019-01-09T20:11:39.373Z,37.05
2019-01-09T20:14:08.802Z,35.00
2019-01-09T20:16:39.733Z,34.85
2019-01-09T20:19:09.251Z,38.73
2019-01-09T20:21:43.450Z,36.00
2019-01-09T20:24:12.867Z,38.23
2019-01-09T20:26:42.283Z,42.95
2019-01-09T20:29:13.982Z,43.08
2019-01-09T20:32:00.435Z,44.90
2019-01-09T20:34:29.839Z,50.65
2019-01-09T20:37:03.423Z,40.70
2019-01-09T20:39:35.164Z,46.13
2019-01-09T20:42:04.601Z,40.30
2019-01-09T20:44:35.281Z,45.28
2019-01-09T20:47:15.271Z,38.85
2019-01-09T20:49:45.350Z,41.50
2019-01-09T20:52:24.158Z,40.45
2019-01-09T20:54:54.045Z,39.80
2019-01-09T20:57:24.177Z,42.95
2019-01-09T20:59:56.851Z,36.83
2019-01-09T21:02:26.243Z,44.53
2019-01-09T21:04:56.888Z,37.20
2019-01-09T21:07:29.155Z,33.28
2019-01-09T21:09:58.589Z,30.90
2019-01-09T21:12:28.212Z,35.17
2019-01-09T21:14:57.671Z,34.10
2019-01-09T21:17:27.060Z,41.88
2019-01-09T21:19:56.365Z,37.85
2019-01-09T21:22:26.057Z,45.12
2019-01-09T21:24:55.409Z,42.35
2019-01-09T21:27:24.830Z,48.25
2019-01-09T21:29:54.236Z,41.30
2019-01-09T21:32:23.642Z,42.85
2019-01-09T21:34:53.080Z,41.53
2019-01-09T21:37:22.514Z,40.48
2019-01-09T21:39:51.928Z,46.85
2019-01-09T21:42:21.268Z,44.73
2019-01-09T21:44:50.624Z,47.88
2019-01-09T21:47:20.001Z,48.17
2019-01-09T21:49:49.330Z,48.35
2019-01-09T21:52:19.017Z,46.42
2019-01-09T21:54:48.366Z,50.98
2019-01-09T21:57:17.663Z,51.50
2019-01-09T21:59:47.788Z,49.95
2019-01-09T22:02:17.087Z,54.23
2019-01-09T22:04:46.735Z,59.83
2019-01-09T22:07:16.096Z,65.52
2019-01-09T22:09:45.408Z,75.55
2019-01-09T22:12:15.106Z,61.98
2019-01-09T22:14:47.191Z,70.45
2019-01-09T22:17:16.691Z,70.03
2019-01-09T22:19:46.373Z,55.10
2019-01-09T22:22:15.732Z,57.35
2019-01-09T22:24:45.271Z,61.98
2019-01-09T22:27:14.649Z,63.45
2019-01-09T22:29:44.012Z,56.13
2019-01-09T22:32:13.370Z,58.28
2019-01-09T22:34:42.733Z,60.95
2019-01-09T22:37:12.540Z,65.28
2019-01-09T22:39:42.975Z,69.40
2019-01-09T22:42:12.385Z,59.38
2019-01-09T22:44:41.694Z,59.93
2019-01-09T22:47:11.104Z,54.93
2019-01-09T22:49:40.417Z,57.48
2019-01-09T22:52:09.766Z,63.23
2019-01-09T22:54:39.120Z,51.48
2019-01-09T22:57:08.496Z,54.05
2019-01-09T22:59:37.842Z,54.33
2019-01-09T23:02:08.143Z,52.27
2019-01-09T23:04:37.458Z,51.05
2019-01-09T23:07:06.799Z,55.10
2019-01-09T23:09:37.129Z,53.30
2019-01-09T23:12:06.545Z,49.27
2019-01-09T23:14:37.676Z,44.23
2019-01-09T23:17:07.130Z,50.58
2019-01-09T23:19:37.303Z,49.85
2019-01-09T23:22:08.914Z,45.98
2019-01-09T23:24:38.354Z,52.13
2019-01-09T23:27:08.412Z,52.88
2019-01-09T23:29:37.778Z,52.55
2019-01-09T23:32:07.135Z,47.03
2019-01-09T23:34:36.507Z,48.70
2019-01-09T23:37:05.985Z,50.80
2019-01-09T23:39:35.375Z,39.53
2019-01-09T23:42:05.113Z,51.15
2019-01-09T23:44:34.448Z,40.70
2019-01-09T23:47:04.178Z,42.67
2019-01-09T23:49:33.520Z,39.05
2019-01-09T23:52:02.949Z,40.98
2019-01-09T23:54:32.308Z,45.17
2019-01-09T23:57:01.693Z,43.40
2019-01-09T23:59:31.086Z,47.45
